Time;durP1;ratioP1;P1;durP2;ratioP2;P2;SDS_P1;SDS_P2;PMS_P1;PMS_P2;Temp;Humidity;BMP_temperature;BMP_pressure;BME280_temperature;BME280_humidity;BME280_pressure;Samples;Min_cycle;Max_cycle;Signal;HPM_P1;HPM_P2
2022/05/12 00:00:09;;;;;;;;;2.50;2.00;;;;;21.22;47.73;101281.50;5059582;28;45146;-66
2022/05/12 00:02:35;;;;;;;;;2.75;2.50;;;;;21.23;48.01;101271.50;5075352;28;45688;-66
2022/05/12 00:05:02;;;;;;;;;1.25;1.00;;;;;21.22;47.72;101283.34;5059959;28;45483;-66
2022/05/12 00:07:28;;;;;;;;;3.00;1.50;;;;;21.23;47.75;101279.63;5070998;28;45311;-66
2022/05/12 00:09:53;;;;;;;;;2.00;2.00;;;;;21.23;48.22;101285.06;5080051;28;45262;-66
2022/05/12 00:12:19;;;;;;;;;2.50;2.00;;;;;21.21;47.91;101292.47;5064722;28;45382;-66
2022/05/12 00:14:44;;;;;;;;;2.00;2.00;;;;;21.17;48.39;101288.22;5062002;28;45413;-66
2022/05/12 00:17:09;;;;;;;;;5.00;3.00;;;;;21.09;48.34;101289.59;5064608;28;45156;-66
2022/05/12 00:19:35;;;;;;;;;2.00;2.00;;;;;;;;5059678;28;45330;-66
2022/05/12 00:22:00;;;;;;;;;2.00;2.00;;;;;21.04;48.12;101294.47;5074539;28;45337;-66
2022/05/12 00:24:26;;;;;;;;;3.00;2.00;;;;;21.00;48.54;101294.78;5070348;28;45452;-66
2022/05/12 00:26:51;;;;;;;;;1.00;1.00;;;;;21.01;48.24;101302.81;5073013;28;45350;-66
2022/05/12 00:29:16;;;;;;;;;2.75;2.00;;;;;20.97;48.11;101298.59;5081377;28;45302;-66
2022/05/12 00:31:44;;;;;;;;;6.75;2.00;;;;;20.97;48.26;101308.56;5067551;28;45307;-66
2022/05/12 00:34:11;;;;;;;;;3.75;2.25;;;;;20.95;48.54;101313.22;5070809;28;45256;-66
2022/05/12 00:36:36;;;;;;;;;3.00;1.00;;;;;20.90;48.76;101313.53;5078300;28;45558;-66
2022/05/12 00:39:03;;;;;;;;;4.50;0.00;;;;;20.83;48.50;101310.38;5062674;28;45415;-66
2022/05/12 00:41:28;;;;;;;;;3.75;2.00;;;;;20.82;48.10;101313.19;5067849;28;45416;-66
2022/05/12 00:43:58;;;;;;;;;3.25;2.00;;;;;20.79;48.46;101311.53;5062863;28;45301;-66
2022/05/12 00:46:26;;;;;;;;;3.00;1.50;;;;;20.82;48.30;101322.19;5062748;28;45300;-66
2022/05/12 00:48:56;;;;;;;;;2.75;2.00;;;;;20.79;48.37;101319.66;5062585;27;46273;-66
2022/05/12 00:51:32;;;;;;;;;2.50;2.00;;;;;20.70;48.52;101310.31;5074503;28;45533;-66
2022/05/12 00:54:01;;;;;;;;;3.50;2.50;;;;;20.68;48.04;101316.78;5062449;28;45310;-66
2022/05/12 00:56:27;;;;;;;;;2.50;2.00;;;;;20.66;48.18;101322.31;5064621;28;45377;-66
2022/05/12 00:58:58;;;;;;;;;2.50;2.50;;;;;20.65;48.21;101326.00;5062551;28;45889;-66
2022/05/12 01:01:23;;;;;;;;;4.50;3.00;;;;;20.69;48.26;101334.81;5074036;28;45509;-66
2022/05/12 01:03:49;;;;;;;;;2.75;2.75;;;;;20.66;48.22;101341.31;5062747;28;45692;-66
2022/05/12 01:06:15;;;;;;;;;2.00;1.00;;;;;20.62;48.92;101333.47;5062239;28;45304;-66
2022/05/12 01:08:42;;;;;;;;;5.00;2.50;;;;;20.61;48.28;101345.25;5081447;28;46205;-66
2022/05/12 01:11:13;;;;;;;;;2.75;2.00;;;;;20.59;48.24;101344.50;5076978;28;45502;-66
2022/05/12 01:13:38;;;;;;;;;2.75;2.00;;;;;20.56;48.50;101342.84;5074989;28;45378;-66
2022/05/12 01:16:05;;;;;;;;;1.75;1.75;;;;;20.50;48.43;101343.25;5075425;28;45615;-66
2022/05/12 01:18:35;;;;;;;;;5.00;3.25;;;;;20.51;48.34;101354.00;5075086;28;45398;-66
2022/05/12 01:21:01;;;;;;;;;5.00;2.25;;;;;20.44;48.38;101343.66;5067514;28;45268;-66
2022/05/12 01:23:29;;;;;;;;;3.75;2.00;;;;;20.46;48.65;101339.00;5078044;28;45708;-66
2022/05/12 01:26:05;;;;;;;;;2.50;2.00;;;;;20.41;48.72;101342.00;5062268;28;45529;-66
2022/05/12 01:28:31;;;;;;;;;3.00;2.00;;;;;20.39;48.37;101340.38;5075182;28;47181;-66
2022/05/12 01:30:57;;;;;;;;;2.00;1.00;;;;;20.44;48.49;101351.78;5079992;28;45379;-66
2022/05/12 01:33:23;;;;;;;;;2.00;2.00;;;;;20.38;48.91;101342.22;5082414;28;45161;-66
2022/05/12 01:35:49;;;;;;;;;5.00;4.50;;;;;20.33;48.73;101339.78;5082352;28;45202;-66
2022/05/12 01:38:15;;;;;;;;;5.00;2.00;;;;;20.42;48.69;101356.44;5081351;28;46202;-66
2022/05/12 01:40:43;;;;;;;;;3.00;3.00;;;;;20.38;48.81;101349.47;5079732;28;45568;-65
2022/05/12 01:43:09;;;;;;;;;3.75;2.50;;;;;20.30;48.80;101345.41;5065689;27;45459;-66
2022/05/12 01:45:35;;;;;;;;;5.50;4.00;;;;;20.32;48.87;101346.16;5082387;28;45326;-66
2022/05/12 01:48:00;;;;;;;;;4.25;2.75;;;;;20.33;49.02;101361.47;5065469;27;46097;-66
2022/05/12 01:50:25;;;;;;;;;3.50;3.50;;;;;20.32;48.96;101359.72;5069641;28;45368;-66
2022/05/12 01:52:51;;;;;;;;;2.50;2.50;;;;;20.29;49.00;101359.91;5089838;27;45503;-68
2022/05/12 01:55:21;;;;;;;;;5.00;3.25;;;;;20.31;49.13;101367.94;5076350;28;45470;-67
2022/05/12 01:57:47;;;;;;;;;4.50;3.25;;;;;20.26;49.36;101365.53;5061809;28;45479;-68
2022/05/12 02:00:18;;;;;;;;;6.75;4.75;;;;;20.28;49.01;101368.16;5073045;28;45349;-66
2022/05/12 02:02:44;;;;;;;;;6.50;3.00;;;;;20.27;49.13;101388.97;5063809;28;45354;-66
2022/05/12 02:05:11;;;;;;;;;7.25;2.50;;;;;20.28;48.86;101381.69;5060594;28;45413;-66
2022/05/12 02:07:39;;;;;;;;;4.00;2.00;;;;;20.22;49.17;101384.81;5070866;28;45413;-66
2022/05/12 02:10:06;;;;;;;;;4.00;4.00;;;;;20.23;49.08;101391.97;5080790;28;45360;-66
2022/05/12 02:12:31;;;;;;;;;2.00;2.00;;;;;20.17;48.97;101398.66;5061548;28;45430;-66
2022/05/12 02:14:57;;;;;;;;;3.75;2.25;;;;;20.17;48.91;101402.22;5071622;27;45420;-66
2022/05/12 02:17:22;;;;;;;;;3.75;3.00;;;;;20.15;48.61;101401.47;5066641;27;47469;-66
2022/05/12 02:19:47;;;;;;;;;2.25;2.25;;;;;20.10;48.68;101405.44;5071861;28;45390;-66
2022/05/12 02:22:13;;;;;;;;;5.00;3.00;;;;;20.09;48.76;101403.66;5065406;28;45497;-66
2022/05/12 02:24:38;;;;;;;;;4.50;2.75;;;;;20.06;48.78;101403.84;5076849;28;45421;-66
2022/05/12 02:27:03;;;;;;;;;2.50;2.00;;;;;20.04;48.54;101411.22;5075644;27;45501;-66
2022/05/12 02:29:29;;;;;;;;;2.75;2.00;;;;;20.03;48.70;101418.50;5080272;28;45369;-66
2022/05/12 02:31:54;;;;;;;;;0.75;0.75;;;;;19.99;48.57;101412.34;5076860;28;45216;-66
2022/05/12 02:34:20;;;;;;;;;2.25;2.00;;;;;19.99;48.45;101417.78;5061268;28;45474;-66
2022/05/12 02:36:59;;;;;;;;;3.25;1.00;;;;;20.01;48.26;101422.25;5063537;27;46276;-65
2022/05/12 02:39:30;;;;;;;;;2.00;2.00;;;;;19.97;47.63;101425.13;5068504;28;45312;-66
2022/05/12 02:41:55;;;;;;;;;1.00;0.50;;;;;19.95;47.17;101428.91;5069026;28;45517;-66
2022/05/12 02:44:21;;;;;;;;;1.00;1.00;;;;;19.92;47.14;101431.81;5062294;28;45483;-66
2022/05/12 02:46:46;;;;;;;;;1.50;1.00;;;;;19.87;46.82;101432.09;5076921;27;46073;-66
2022/05/12 02:49:12;;;;;;;;;1.00;1.00;;;;;19.87;46.27;101433.94;5069397;28;45564;-66
2022/05/12 02:51:37;;;;;;;;;1.00;1.00;;;;;19.84;46.42;101436.81;5068725;28;45767;-66
2022/05/12 02:54:03;;;;;;;;;1.25;1.00;;;;;19.79;46.43;101442.50;5070370;28;45539;-66
2022/05/12 02:56:28;;;;;;;;;2.25;1.00;;;;;19.74;46.53;101431.03;5071548;27;48348;-66
2022/05/12 02:58:53;;;;;;;;;0.00;0.00;;;;;19.69;46.45;101425.91;5079970;28;45413;-66
2022/05/12 03:01:19;;;;;;;;;0.25;0.25;;;;;19.69;46.21;101434.03;5068182;28;45339;-66
2022/05/12 03:03:45;;;;;;;;;0.75;0.25;;;;;19.70;46.39;101448.47;5060639;28;45279;-66
2022/05/12 03:06:11;;;;;;;;;2.50;1.00;;;;;19.68;46.43;101458.50;5059901;28;46052;-66
2022/05/12 03:08:36;;;;;;;;;1.00;1.00;;;;;19.60;46.66;101445.41;5073676;27;46023;-66
2022/05/12 03:11:04;;;;;;;;;0.50;0.00;;;;;19.58;46.68;101450.94;5076870;28;45251;-65
2022/05/12 03:13:31;;;;;;;;;2.25;0.50;;;;;19.61;46.68;101448.03;5061439;28;45310;-66
2022/05/12 03:15:57;;;;;;;;;1.00;1.00;;;;;19.60;46.73;101453.53;5070070;28;47029;-66
2022/05/12 03:18:24;;;;;;;;;1.00;1.00;;;;;19.58;46.81;101459.06;5062638;27;45668;-65
2022/05/12 03:20:50;;;;;;;;;1.00;1.00;;;;;19.53;47.24;101454.84;5065373;28;45430;-65
2022/05/12 03:23:15;;;;;;;;;1.50;1.50;;;;;19.51;46.96;101462.19;5068397;28;45353;-65
2022/05/12 03:25:43;;;;;;;;;2.00;1.00;;;;;19.50;47.05;101457.75;5060077;28;45422;-66
2022/05/12 03:28:09;;;;;;;;;1.00;1.00;;;;;19.49;47.09;101456.00;5071340;27;45291;-66
2022/05/12 03:30:35;;;;;;;;;1.00;1.00;;;;;19.44;47.37;101457.16;5070107;28;45488;-66
2022/05/12 03:33:00;;;;;;;;;1.00;1.00;;;;;19.48;47.42;101465.06;5068282;28;45456;-66
2022/05/12 03:35:25;;;;;;;;;0.00;0.00;;;;;19.45;47.32;101466.16;5060157;28;45315;-66
2022/05/12 03:37:51;;;;;;;;;1.75;1.50;;;;;19.43;47.64;101459.97;5067330;27;45509;-66
2022/05/12 03:40:17;;;;;;;;;1.75;1.75;;;;;19.46;47.41;101467.00;5060594;28;45322;-66
2022/05/12 03:42:43;;;;;;;;;2.75;2.75;;;;;19.43;47.15;101470.78;5063334;28;45512;-66
2022/05/12 03:45:10;;;;;;;;;1.00;1.00;;;;;19.37;47.35;101460.31;5060465;28;45302;-65
2022/05/12 03:47:38;;;;;;;;;2.00;1.00;;;;;19.39;47.28;101461.94;5075526;27;46038;-65
2022/05/12 03:50:13;;;;;;;;;1.00;1.00;;;;;19.39;47.42;101466.50;5063323;27;45430;-66
2022/05/12 03:52:39;;;;;;;;;0.50;0.50;;;;;19.37;46.98;101461.16;5067588;28;45246;-66
2022/05/12 03:55:07;;;;;;;;;1.25;1.00;;;;;19.38;47.05;101462.94;5079154;28;46175;-66
2022/05/12 03:57:32;;;;;;;;;1.75;1.75;;;;;19.37;47.37;101465.72;5073718;27;45634;-65
2022/05/12 03:59:57;;;;;;;;;1.00;0.00;;;;;19.35;47.16;101460.38;5069500;28;45278;-66
2022/05/12 04:02:24;;;;;;;;;3.00;1.00;;;;;19.33;47.22;101462.31;5079794;28;45325;-65
2022/05/12 04:04:50;;;;;;;;;0.25;0.25;;;;;19.32;47.30;101465.13;5079192;28;47055;-65
2022/05/12 04:07:19;;;;;;;;;1.00;1.00;;;;;19.30;47.06;101472.47;5073135;27;45397;-66
2022/05/12 04:09:45;;;;;;;;;0.00;0.00;;;;;19.31;47.33;101476.88;5067028;28;46428;-66
2022/05/12 04:12:11;;;;;;;;;2.00;1.00;;;;;19.28;47.13;101471.66;5060224;28;45302;-66
2022/05/12 04:14:40;;;;;;;;;3.00;1.00;;;;;19.23;47.38;101463.81;5059522;28;45322;-65
2022/05/12 04:17:13;;;;;;;;;3.25;1.00;;;;;19.20;47.50;101472.09;5062255;27;45528;-66
2022/05/12 04:19:39;;;;;;;;;1.00;1.00;;;;;19.20;47.66;101485.63;5059245;28;45315;-66
2022/05/12 04:22:05;;;;;;;;;1.50;0.75;;;;;19.19;47.40;101489.28;5072578;28;45604;-66
2022/05/12 04:24:31;;;;;;;;;1.25;0.00;;;;;19.14;47.59;101481.44;5059683;28;46256;-68
2022/05/12 04:26:56;;;;;;;;;1.00;1.00;;;;;19.16;47.42;101493.06;5064177;27;45311;-68
2022/05/12 04:29:21;;;;;;;;;1.50;1.50;;;;;19.11;47.45;101491.56;5069950;28;45375;-68
2022/05/12 04:31:47;;;;;;;;;3.00;2.00;;;;;19.12;47.18;101488.75;5075713;28;45267;-66
2022/05/12 04:36:56;;;;;;;;;0.25;0.25;;;;;19.09;47.58;101491.63;5061400;27;45620;-66
2022/05/12 04:39:22;;;;;;;;;5.25;2.50;;;;;19.07;47.92;101493.56;5078743;28;45706;-64
2022/05/12 04:41:47;;;;;;;;;2.00;2.00;;;;;19.05;47.77;101501.78;5060382;28;45221;-65
2022/05/12 04:44:13;;;;;;;;;1.00;1.00;;;;;19.04;48.12;101499.16;5064181;28;46363;-67
2022/05/12 04:46:41;;;;;;;;;0.75;0.75;;;;;19.02;47.98;101499.22;5073170;28;45251;-67
2022/05/12 04:49:08;;;;;;;;;1.50;1.25;;;;;19.03;48.00;101505.53;5058431;27;45528;-67
2022/05/12 04:51:37;;;;;;;;;2.00;1.50;;;;;19.03;47.85;101505.53;5058930;28;45559;-68
2022/05/12 04:54:06;;;;;;;;;4.25;3.00;;;;;19.03;47.77;101502.81;5067573;27;45506;-67
2022/05/12 04:56:35;;;;;;;;;3.75;1.75;;;;;19.02;48.08;101512.75;5069901;27;45521;-67
2022/05/12 04:59:01;;;;;;;;;3.75;2.00;;;;;19.01;47.69;101518.25;5078273;27;45373;-67
2022/05/12 05:01:26;;;;;;;;;2.50;2.00;;;;;18.95;48.05;101503.25;5078142;28;45607;-67
2022/05/12 05:04:10;;;;;;;;;3.00;1.75;;;;;18.97;47.79;101509.44;5077355;27;45362;-67
2022/05/12 05:06:36;;;;;;;;;2.00;1.25;;;;;18.92;47.92;101510.66;5076708;28;45424;-67
2022/05/12 05:09:02;;;;;;;;;3.00;2.00;;;;;18.96;48.47;101504.09;5077880;28;45276;-67
2022/05/12 05:11:28;;;;;;;;;4.50;3.00;;;;;18.95;48.18;101499.69;5072898;28;45561;-67
2022/05/12 05:13:53;;;;;;;;;2.00;2.00;;;;;18.99;48.25;101510.22;5062620;28;45245;-67
2022/05/12 05:16:19;;;;;;;;;2.00;2.00;;;;;18.96;48.22;101506.81;5075329;28;45432;-67
2022/05/12 05:18:45;;;;;;;;;4.25;3.00;;;;;18.95;48.18;101524.88;5066208;28;45252;-66
2022/05/12 05:21:10;;;;;;;;;5.75;3.50;;;;;18.92;48.50;101524.19;5069737;28;45647;-66
2022/05/12 05:23:37;;;;;;;;;3.00;1.50;;;;;18.95;48.57;101534.84;5063750;28;46064;-66
2022/05/12 05:26:03;;;;;;;;;4.25;2.00;;;;;18.92;48.77;101526.91;5080098;28;45476;-66
2022/05/12 05:28:28;;;;;;;;;3.50;2.00;;;;;18.92;48.50;101530.47;5077469;28;45883;-66
2022/05/12 05:30:54;;;;;;;;;2.00;2.00;;;;;18.89;48.38;101530.63;5070458;28;45547;-66
2022/05/12 05:33:20;;;;;;;;;4.00;1.25;;;;;18.90;48.41;101543.19;5065370;27;46345;-66
2022/05/12 05:35:45;;;;;;;;;1.00;1.00;;;;;18.87;48.42;101552.34;5061584;28;45405;-66
2022/05/12 05:38:11;;;;;;;;;11.50;10.75;;;;;18.83;48.48;101549.91;5069275;28;45667;-64
2022/05/12 05:40:37;;;;;;;;;6.00;5.25;;;;;18.82;48.59;101557.09;5068542;28;45397;-65
2022/05/12 05:43:03;;;;;;;;;3.25;2.00;;;;;18.81;48.91;101558.06;5062395;28;45469;-65
2022/05/12 05:45:29;;;;;;;;;1.00;1.00;;;;;18.79;48.95;101559.97;5075586;28;45407;-65
2022/05/12 05:47:58;;;;;;;;;3.25;2.25;;;;;18.83;48.96;101571.56;5065316;28;45181;-67
2022/05/12 05:53:39;;;;;;;;;4.00;3.00;;;;;18.81;48.76;101579.72;5065291;28;46174;-67
2022/05/12 05:56:11;;;;;;;;;5.25;3.00;;;;;18.85;48.69;101578.63;5073474;28;45278;-67
2022/05/12 05:58:39;;;;;;;;;5.00;2.00;;;;;18.79;48.63;101587.00;5079177;27;45358;-67
2022/05/12 06:01:05;;;;;;;;;2.25;1.25;;;;;18.74;48.65;101585.53;5073095;28;45498;-66
2022/05/12 06:03:30;;;;;;;;;3.00;3.00;;;;;18.77;48.70;101604.28;5061307;28;46069;-66
2022/05/12 06:05:56;;;;;;;;;2.75;2.00;;;;;18.64;48.45;101604.06;5070738;28;45630;-67
2022/05/12 06:08:22;;;;;;;;;3.00;3.00;;;;;18.64;48.50;101623.00;5077537;28;45520;-66
2022/05/12 06:10:47;;;;;;;;;4.00;2.00;;;;;18.54;48.85;101613.63;5068062;28;45240;-66
2022/05/12 06:13:14;;;;;;;;;2.25;2.00;;;;;18.59;48.56;101625.94;5072269;28;45222;-67
2022/05/12 06:15:40;;;;;;;;;5.00;3.00;;;;;18.55;49.15;101618.94;5061530;28;45298;-66
2022/05/12 06:18:11;;;;;;;;;1.00;1.00;;;;;18.59;48.75;101623.22;5061480;28;45310;-67
2022/05/12 06:20:37;;;;;;;;;3.25;2.25;;;;;18.64;49.17;101631.09;5075053;28;45318;-66
2022/05/12 06:23:03;;;;;;;;;3.75;2.25;;;;;18.59;48.32;101616.94;5061261;28;45461;-67
2022/05/12 06:25:28;;;;;;;;;4.25;3.00;;;;;18.54;48.49;101630.69;5066325;28;45177;-66
2022/05/12 06:27:54;;;;;;;;;1.50;1.50;;;;;18.49;48.63;101628.25;5060671;28;45433;-66
2022/05/12 06:30:20;;;;;;;;;4.75;3.25;;;;;18.42;49.14;101625.94;5075723;28;45542;-66
2022/05/12 06:32:46;;;;;;;;;1.75;1.75;;;;;18.36;49.26;101627.13;5067513;28;45317;-66
2022/05/12 06:35:14;;;;;;;;;3.00;2.00;;;;;18.39;49.38;101637.75;5063868;28;45363;-66
2022/05/12 06:37:39;;;;;;;;;3.50;2.50;;;;;18.46;49.09;101632.91;5076636;28;45441;-68
2022/05/12 06:40:05;;;;;;;;;3.25;3.25;;;;;18.43;49.63;101627.69;5065776;28;45470;-67
2022/05/12 06:42:31;;;;;;;;;6.25;3.75;;;;;18.49;49.30;101644.47;5066899;28;46103;-66
2022/05/12 06:44:56;;;;;;;;;4.00;2.75;;;;;18.47;48.84;101635.56;5067365;28;45401;-66
2022/05/12 06:47:22;;;;;;;;;2.75;2.00;;;;;18.52;49.56;101644.28;5060298;28;47032;-69
2022/05/12 06:49:51;;;;;;;;;4.75;2.25;;;;;18.54;49.36;101646.06;5073695;27;45450;-68
2022/05/12 06:52:18;;;;;;;;;3.25;2.00;;;;;18.56;49.18;101652.25;5080283;27;45269;-68
2022/05/12 06:54:44;;;;;;;;;4.75;3.00;;;;;18.56;49.19;101645.03;5066986;28;45572;-68
2022/05/12 06:57:10;;;;;;;;;4.75;3.25;;;;;18.59;49.31;101635.88;5062210;28;45342;-68
2022/05/12 06:59:39;;;;;;;;;3.50;2.00;;;;;18.65;48.98;101643.69;5060419;28;45418;-68
2022/05/12 07:02:05;;;;;;;;;3.00;2.00;;;;;18.67;49.21;101639.06;5060920;28;46119;-68
2022/05/12 07:04:31;;;;;;;;;2.00;2.00;;;;;18.71;48.98;101640.66;5072475;28;47040;-69
2022/05/12 07:06:57;;;;;;;;;4.00;3.00;;;;;18.67;48.45;101639.94;5065493;28;45379;-68
2022/05/12 07:09:23;;;;;;;;;2.50;0.50;;;;;18.67;48.62;101641.75;5074471;28;45652;-68
2022/05/12 07:11:48;;;;;;;;;3.50;2.50;;;;;18.62;48.60;101636.59;5060478;28;45497;-68
2022/05/12 07:14:17;;;;;;;;;3.00;2.00;;;;;18.67;48.16;101639.94;5060546;28;45418;-68
2022/05/12 07:16:43;;;;;;;;;2.00;2.00;;;;;18.68;48.56;101640.81;5072958;28;45455;-68
2022/05/12 07:19:09;;;;;;;;;2.00;2.00;;;;;18.73;48.14;101649.56;5059858;27;45417;-69
2022/05/12 07:27:02;;;;;;;;;2.25;2.00;;;;;18.79;48.18;101649.22;5062082;28;45503;-68
2022/05/12 07:29:28;;;;;;;;;3.00;2.00;;;;;18.78;47.55;101636.69;5067480;28;45229;-69
2022/05/12 07:31:54;;;;;;;;;3.25;2.00;;;;;18.73;47.96;101633.34;5074757;28;45683;-69
2022/05/12 07:34:20;;;;;;;;;3.00;1.25;;;;;18.70;47.80;101628.09;5063249;27;45196;-69
2022/05/12 07:36:50;;;;;;;;;3.75;2.00;;;;;18.74;47.56;101635.06;5077727;28;45247;-68
2022/05/12 07:39:17;;;;;;;;;2.75;2.00;;;;;18.78;47.09;101641.22;5061905;28;45316;-68
2022/05/12 07:41:43;;;;;;;;;2.00;2.00;;;;;18.77;47.55;101637.63;5073359;28;45311;-68
2022/05/12 07:44:09;;;;;;;;;4.00;4.00;;;;;18.80;47.31;101636.59;5059694;28;45211;-68
2022/05/12 07:46:35;;;;;;;;;2.00;2.00;;;;;18.85;47.50;101639.97;5060006;28;45314;-68
2022/05/12 07:49:01;;;;;;;;;3.75;2.50;;;;;18.87;47.25;101635.34;5078977;27;45564;-69
2022/05/12 07:51:26;;;;;;;;;2.75;1.25;;;;;18.90;46.98;101637.88;5064453;27;46307;-69
2022/05/12 07:53:52;;;;;;;;;5.00;3.00;;;;;18.96;46.82;101642.09;5085008;27;45409;-69
2022/05/12 07:56:22;;;;;;;;;2.00;2.00;;;;;19.01;46.63;101642.72;5072362;28;45431;-69
2022/05/12 07:58:47;;;;;;;;;2.75;2.25;;;;;19.08;46.52;101641.44;5066851;28;45476;-69
2022/05/12 08:01:15;;;;;;;;;2.00;2.00;;;;;19.10;46.61;101647.63;5058906;28;46191;-71
2022/05/12 08:03:42;;;;;;;;;2.75;2.50;;;;;19.17;46.13;101648.19;5057364;28;45493;-70
2022/05/12 08:06:10;;;;;;;;;1.75;1.75;;;;;19.18;45.70;101642.69;5058353;28;45485;-69
2022/05/12 08:08:36;;;;;;;;;1.00;1.00;;;;;19.19;45.85;101651.69;5078102;28;45575;-69
2022/05/12 08:11:03;;;;;;;;;2.75;2.00;;;;;19.28;45.71;101642.16;5072417;28;46937;-69
2022/05/12 08:13:29;;;;;;;;;4.25;2.00;;;;;19.27;45.27;101644.00;5059415;28;45414;-69
2022/05/12 08:15:55;;;;;;;;;2.00;1.00;;;;;19.29;45.37;101642.09;5059445;28;45314;-69
2022/05/12 08:18:23;;;;;;;;;2.00;2.00;;;;;19.31;45.30;101647.41;5080412;27;45307;-69
2022/05/12 08:20:50;;;;;;;;;3.00;2.00;;;;;19.31;45.15;101648.31;5061967;27;45515;-69
2022/05/12 08:23:16;;;;;;;;;1.50;1.50;;;;;19.35;45.18;101663.41;5060468;28;45609;-69
2022/05/12 08:25:45;;;;;;;;;1.75;1.75;;;;;19.39;44.69;101674.94;5059166;28;45530;-69
2022/05/12 08:28:16;;;;;;;;;2.25;1.50;;;;;19.40;45.08;101665.88;5074540;27;45243;-69
2022/05/12 08:30:44;;;;;;;;;2.00;2.00;;;;;19.41;44.83;101665.81;5068279;28;45579;-69
2022/05/12 08:33:10;;;;;;;;;2.00;2.00;;;;;19.45;44.99;101655.66;5067726;28;45424;-69
2022/05/12 08:35:35;;;;;;;;;3.00;1.25;;;;;19.50;44.71;101663.53;5072333;28;45639;-69
2022/05/12 08:38:00;;;;;;;;;4.00;2.00;;;;;19.52;45.09;101656.22;5071443;27;45519;-69
2022/05/12 08:40:40;;;;;;;;;1.75;1.00;;;;;19.55;44.54;101658.75;5060177;28;45327;-69
2022/05/12 08:43:41;;;;;;;;;0.00;0.00;;;;;19.53;44.41;101658.84;5059356;28;45589;-69
2022/05/12 08:46:10;;;;;;;;;1.50;1.50;;;;;19.55;44.56;101656.91;5058858;28;45332;-69
2022/05/12 08:48:41;;;;;;;;;1.50;1.25;;;;;19.52;44.49;101648.94;5083604;27;45359;-69
2022/05/12 08:51:11;;;;;;;;;1.75;1.00;;;;;19.59;44.75;101653.06;5061664;28;46444;-69
2022/05/12 08:53:48;;;;;;;;;2.00;2.00;;;;;19.65;44.37;101659.13;5061540;28;45665;-69
2022/05/12 08:56:14;;;;;;;;;1.00;1.00;;;;;19.64;44.90;101647.38;5077440;28;45535;-69
2022/05/12 08:58:43;;;;;;;;;5.00;5.00;;;;;19.70;44.43;101647.03;5060128;28;45844;-69
2022/05/12 09:01:08;;;;;;;;;2.50;1.00;;;;;19.72;44.59;101650.53;5064908;28;45425;-69
2022/05/12 09:04:01;;;;;;;;;3.25;2.25;;;;;19.75;44.33;101653.09;5075946;28;46979;-69
2022/05/12 09:06:37;;;;;;;;;2.00;1.00;;;;;19.74;44.31;101648.59;5061934;28;45212;-69
2022/05/12 09:09:02;;;;;;;;;1.25;1.00;;;;;19.78;44.36;101654.78;5082472;28;45393;-67
2022/05/12 09:11:39;;;;;;;;;3.00;1.00;;;;;19.79;44.38;101643.84;5074134;28;45386;-68
2022/05/12 09:14:12;;;;;;;;;1.50;1.50;;;;;19.80;44.43;101639.31;5061858;28;45561;-66
2022/05/12 09:16:38;;;;;;;;;1.50;1.00;;;;;19.81;44.25;101641.03;5068890;28;45658;-67
2022/05/12 09:19:04;;;;;;;;;1.00;1.00;;;;;19.78;44.25;101633.97;5064379;28;45380;-66
2022/05/12 09:21:35;;;;;;;;;1.00;1.00;;;;;19.81;44.09;101649.16;5065711;28;45365;-66
2022/05/12 09:24:03;;;;;;;;;1.75;1.75;;;;;19.83;44.30;101647.28;5077194;28;45778;-66
2022/05/12 09:27:09;;;;;;;;;4.00;2.00;;;;;19.84;44.13;101646.28;5067288;28;45354;-66
2022/05/12 09:29:49;;;;;;;;;2.00;1.00;;;;;19.82;44.38;101640.09;5063457;28;45453;-66
2022/05/12 09:32:21;;;;;;;;;1.50;1.50;;;;;19.87;44.07;101645.25;5061671;28;46419;-66
2022/05/12 09:35:10;;;;;;;;;2.00;2.00;;;;;19.89;44.48;101641.47;5062020;28;45497;-65
2022/05/12 09:37:40;;;;;;;;;1.00;1.00;;;;;19.93;44.31;101644.88;5065664;28;45654;-64
2022/05/12 09:40:20;;;;;;;;;1.50;1.50;;;;;19.96;44.67;101644.72;5061737;28;45536;-64
2022/05/12 09:42:52;;;;;;;;;2.50;2.25;;;;;19.98;44.36;101650.94;5061448;28;45498;-64
2022/05/12 09:45:22;;;;;;;;;1.25;1.25;;;;;20.01;44.43;101645.31;5061743;28;45410;-64
2022/05/12 09:47:48;;;;;;;;;2.00;1.50;;;;;20.00;44.26;101638.16;5067479;28;46064;-64
2022/05/12 09:50:24;;;;;;;;;3.50;2.00;;;;;20.03;44.24;101635.28;5071831;28;45588;-64
2022/05/12 09:52:57;;;;;;;;;1.00;1.00;;;;;20.06;44.26;101640.50;5072770;28;45308;-64
2022/05/12 09:56:00;;;;;;;;;1.25;1.00;;;;;20.09;44.04;101642.16;5061646;28;45607;-66
2022/05/12 09:58:34;;;;;;;;;1.00;1.00;;;;;20.07;44.06;101635.97;5070037;27;45307;-67
2022/05/12 10:01:15;;;;;;;;;2.50;1.50;;;;;20.02;44.15;101621.81;5066285;28;45311;-67
2022/05/12 10:09:27;;;;;;;;;1.00;0.75;;;;;20.12;44.33;101632.03;5074268;28;45429;-67
2022/05/12 10:12:06;;;;;;;;;1.25;1.25;;;;;20.13;44.30;101627.47;5067054;28;45484;-67
2022/05/12 10:14:38;;;;;;;;;2.75;1.25;;;;;20.18;44.01;101628.09;5068889;28;45306;-67
2022/05/12 10:17:15;;;;;;;;;1.25;1.25;;;;;20.21;43.84;101624.31;5067858;28;45409;-69
2022/05/12 10:19:42;;;;;;;;;4.00;2.50;;;;;20.22;43.89;101618.81;5073039;28;46540;-69
2022/05/12 10:22:32;;;;;;;;;2.00;2.00;;;;;20.24;43.75;101621.44;5060669;28;45532;-69
2022/05/12 10:25:19;;;;;;;;;1.00;1.00;;;;;20.23;43.94;101625.97;5060969;28;46992;-69
2022/05/12 10:28:06;;;;;;;;;2.00;2.00;;;;;20.24;43.81;101626.84;5064320;28;45519;-69
2022/05/12 10:30:39;;;;;;;;;2.50;1.00;;;;;20.25;43.79;101626.75;5079739;28;45434;-69
2022/05/12 10:33:32;;;;;;;;;1.25;1.25;;;;;20.25;43.61;101613.22;5075452;28;45299;-69
2022/05/12 10:36:16;;;;;;;;;1.75;1.75;;;;;20.27;43.84;101615.81;5062674;28;47036;-69
2022/05/12 10:39:11;;;;;;;;;1.50;1.50;;;;;20.28;44.00;101629.28;5069519;28;45394;-69
2022/05/12 10:42:06;;;;;;;;;2.75;2.75;;;;;20.30;43.77;101624.66;5065267;28;45483;-67
2022/05/12 10:45:00;;;;;;;;;2.00;2.00;;;;;20.32;43.73;101628.13;5067080;28;45321;-69
2022/05/12 10:47:38;;;;;;;;;2.25;1.00;;;;;20.33;43.84;101615.44;5080554;28;46095;-69
2022/05/12 10:50:41;;;;;;;;;2.75;1.75;;;;;20.35;43.77;101616.25;5071926;27;45408;-69
2022/05/12 10:53:15;;;;;;;;;3.75;3.00;;;;;20.37;44.07;101617.03;5062321;27;45325;-68
2022/05/12 10:56:08;;;;;;;;;2.50;2.50;;;;;20.38;43.76;101609.75;5060536;28;46234;-69
2022/05/12 10:58:49;;;;;;;;;2.25;2.25;;;;;20.39;43.71;101606.94;5070280;28;47232;-69
2022/05/12 11:01:17;;;;;;;;;1.00;1.00;;;;;20.42;43.74;101608.63;5070119;28;45424;-69
2022/05/12 11:03:58;;;;;;;;;3.25;2.00;;;;;20.43;43.55;101605.81;5079715;28;45401;-69
2022/05/12 11:06:31;;;;;;;;;1.00;1.00;;;;;20.38;43.17;101596.19;5079559;28;45449;-69
2022/05/12 11:09:07;;;;;;;;;2.75;2.75;;;;;20.46;43.60;101607.44;5074538;28;46605;-69
2022/05/12 11:11:38;;;;;;;;;1.50;1.50;;;;;20.52;43.44;101609.81;5078935;28;45428;-69
2022/05/12 11:14:15;;;;;;;;;1.25;1.00;;;;;20.52;43.61;101612.50;5060126;28;45513;-69
2022/05/12 11:16:59;;;;;;;;;1.25;1.25;;;;;20.53;43.04;101609.72;5060290;28;45893;-69
2022/05/12 11:19:26;;;;;;;;;1.75;1.00;;;;;20.58;43.08;101606.72;5061975;28;47784;-69
2022/05/12 11:22:05;;;;;;;;;1.25;1.00;;;;;20.61;42.96;101603.81;5061388;28;45272;-69
2022/05/12 11:24:34;;;;;;;;;2.25;1.25;;;;;20.65;42.89;101608.13;5077697;28;45437;-69
2022/05/12 11:27:02;;;;;;;;;5.25;2.50;;;;;20.68;42.54;101610.66;5063318;28;45731;-69
2022/05/12 11:29:51;;;;;;;;;0.75;0.75;;;;;20.72;42.98;101611.34;5061183;28;45429;-69
2022/05/12 11:32:35;;;;;;;;;1.50;1.50;;;;;20.77;43.21;101617.34;5078650;28;45497;-69
2022/05/12 11:35:05;;;;;;;;;2.00;2.00;;;;;20.79;43.05;101615.41;5077582;28;45329;-69
2022/05/12 11:37:43;;;;;;;;;1.00;1.00;;;;;20.80;42.71;101609.03;5079914;28;45471;-69
2022/05/12 11:40:12;;;;;;;;;2.00;2.00;;;;;20.82;42.65;101600.78;5066011;28;45749;-69
2022/05/12 11:45:48;;;;;;;;;1.50;1.50;;;;;20.86;42.43;101605.91;5065381;28;45542;-67
2022/05/12 11:48:35;;;;;;;;;1.00;1.00;;;;;20.87;42.90;101601.38;5068682;28;45393;-68
2022/05/12 11:51:23;;;;;;;;;2.50;1.25;;;;;20.91;43.22;101605.63;5069459;27;45520;-65
2022/05/12 11:53:57;;;;;;;;;1.00;1.00;;;;;20.94;42.64;101610.88;5065084;27;45567;-65
2022/05/12 11:56:44;;;;;;;;;3.50;1.75;;;;;20.97;42.65;101599.81;5056811;28;45502;-65